sensor_id;sensor_type;location;lat;lon;timestamp;P1;durP1;ratioP1;P2;durP2;ratioP2
16967;SDS011;64862;54.398;10.126;2023-02-24T00:04:19;9.85;;;1.20;;
16967;SDS011;64862;54.398;10.126;2023-02-24T00:14:23;19.05;;;1.55;;
16967;SDS011;64862;54.398;10.126;2023-02-24T00:24:27;9.65;;;1.08;;
16967;SDS011;64862;54.398;10.126;2023-02-24T00:34:32;11.30;;;1.65;;
16967;SDS011;64862;54.398;10.126;2023-02-24T00:44:36;17.13;;;1.70;;
16967;SDS011;64862;54.398;10.126;2023-02-24T00:54:41;12.07;;;1.50;;
16967;SDS011;64862;54.398;10.126;2023-02-24T01:04:44;14.75;;;1.42;;
16967;SDS011;64862;54.398;10.126;2023-02-24T01:14:49;11.23;;;0.98;;
16967;SDS011;64862;54.398;10.126;2023-02-24T01:24:52;11.73;;;1.42;;
16967;SDS011;64862;54.398;10.126;2023-02-24T01:34:56;14.60;;;1.65;;
16967;SDS011;64862;54.398;10.126;2023-02-24T01:45:06;6.95;;;0.98;;
16967;SDS011;64862;54.398;10.126;2023-02-24T01:55:17;12.52;;;1.10;;
16967;SDS011;64862;54.398;10.126;2023-02-24T02:05:23;8.82;;;1.20;;
16967;SDS011;64862;54.398;10.126;2023-02-24T02:15:26;10.18;;;1.00;;
16967;SDS011;64862;54.398;10.126;2023-02-24T02:25:34;11.95;;;1.10;;
16967;SDS011;64862;54.398;10.126;2023-02-24T02:35:49;7.35;;;1.15;;
16967;SDS011;64862;54.398;10.126;2023-02-24T02:46:00;10.30;;;1.48;;
16967;SDS011;64862;54.398;10.126;2023-02-24T02:56:11;10.20;;;1.30;;
16967;SDS011;64862;54.398;10.126;2023-02-24T03:06:18;11.30;;;1.13;;
16967;SDS011;64862;54.398;10.126;2023-02-24T03:16:25;8.02;;;1.10;;
16967;SDS011;64862;54.398;10.126;2023-02-24T03:26:29;13.85;;;1.30;;
16967;SDS011;64862;54.398;10.126;2023-02-24T03:46:42;11.00;;;1.70;;
16967;SDS011;64862;54.398;10.126;2023-02-24T03:56:48;8.45;;;1.13;;
16967;SDS011;64862;54.398;10.126;2023-02-24T04:07:03;11.52;;;1.38;;
16967;SDS011;64862;54.398;10.126;2023-02-24T04:17:14;7.88;;;1.00;;
16967;SDS011;64862;54.398;10.126;2023-02-24T04:27:21;8.65;;;0.98;;
16967;SDS011;64862;54.398;10.126;2023-02-24T04:37:33;10.45;;;1.10;;
16967;SDS011;64862;54.398;10.126;2023-02-24T04:47:36;11.10;;;1.10;;
16967;SDS011;64862;54.398;10.126;2023-02-24T04:57:43;8.00;;;0.98;;
16967;SDS011;64862;54.398;10.126;2023-02-24T05:07:47;9.88;;;1.08;;
16967;SDS011;64862;54.398;10.126;2023-02-24T05:17:50;9.20;;;0.90;;
16967;SDS011;64862;54.398;10.126;2023-02-24T05:27:52;10.32;;;1.30;;
16967;SDS011;64862;54.398;10.126;2023-02-24T05:37:57;9.70;;;1.35;;
16967;SDS011;64862;54.398;10.126;2023-02-24T05:47:59;9.05;;;1.33;;
16967;SDS011;64862;54.398;10.126;2023-02-24T05:58:06;14.45;;;1.50;;
16967;SDS011;64862;54.398;10.126;2023-02-24T06:08:08;13.85;;;1.77;;
16967;SDS011;64862;54.398;10.126;2023-02-24T06:18:12;10.82;;;1.58;;
16967;SDS011;64862;54.398;10.126;2023-02-24T06:28:16;12.35;;;1.58;;
16967;SDS011;64862;54.398;10.126;2023-02-24T06:38:20;13.95;;;1.80;;
16967;SDS011;64862;54.398;10.126;2023-02-24T06:48:22;12.18;;;1.40;;
16967;SDS011;64862;54.398;10.126;2023-02-24T06:58:26;8.93;;;1.20;;
16967;SDS011;64862;54.398;10.126;2023-02-24T07:08:28;10.32;;;1.63;;
16967;SDS011;64862;54.398;10.126;2023-02-24T07:18:31;9.10;;;1.88;;
16967;SDS011;64862;54.398;10.126;2023-02-24T07:28:35;11.05;;;1.80;;
16967;SDS011;64862;54.398;10.126;2023-02-24T07:38:40;6.30;;;1.30;;
16967;SDS011;64862;54.398;10.126;2023-02-24T07:48:43;8.13;;;1.30;;
16967;SDS011;64862;54.398;10.126;2023-02-24T07:58:47;4.43;;;0.75;;
16967;SDS011;64862;54.398;10.126;2023-02-24T08:08:50;6.15;;;1.13;;
16967;SDS011;64862;54.398;10.126;2023-02-24T08:18:59;7.63;;;1.10;;
16967;SDS011;64862;54.398;10.126;2023-02-24T08:29:02;3.25;;;0.80;;
16967;SDS011;64862;54.398;10.126;2023-02-24T08:39:07;6.45;;;1.10;;
16967;SDS011;64862;54.398;10.126;2023-02-24T08:49:10;5.43;;;1.02;;
16967;SDS011;64862;54.398;10.126;2023-02-24T08:59:17;7.95;;;3.72;;
16967;SDS011;64862;54.398;10.126;2023-02-24T09:09:36;9.57;;;1.92;;
16967;SDS011;64862;54.398;10.126;2023-02-24T09:19:43;9.43;;;1.90;;
16967;SDS011;64862;54.398;10.126;2023-02-24T09:30:03;17.77;;;2.45;;
16967;SDS011;64862;54.398;10.126;2023-02-24T09:40:09;13.57;;;2.75;;
16967;SDS011;64862;54.398;10.126;2023-02-24T09:50:27;18.70;;;2.60;;
16967;SDS011;64862;54.398;10.126;2023-02-24T10:00:48;21.98;;;2.90;;
16967;SDS011;64862;54.398;10.126;2023-02-24T10:10:56;22.88;;;3.50;;
16967;SDS011;64862;54.398;10.126;2023-02-24T10:21:12;27.77;;;3.78;;
16967;SDS011;64862;54.398;10.126;2023-02-24T10:31:30;26.48;;;3.95;;
16967;SDS011;64862;54.398;10.126;2023-02-24T10:41:45;22.65;;;3.38;;
16967;SDS011;64862;54.398;10.126;2023-02-24T10:51:50;26.52;;;3.50;;
16967;SDS011;64862;54.398;10.126;2023-02-24T11:01:55;19.75;;;3.42;;
16967;SDS011;64862;54.398;10.126;2023-02-24T11:12:10;26.05;;;3.47;;
16967;SDS011;64862;54.398;10.126;2023-02-24T11:22:35;24.23;;;3.10;;
16967;SDS011;64862;54.398;10.126;2023-02-24T11:32:43;26.38;;;3.33;;
16967;SDS011;64862;54.398;10.126;2023-02-24T11:42:54;27.40;;;3.33;;
16967;SDS011;64862;54.398;10.126;2023-02-24T11:53:02;23.37;;;3.53;;
16967;SDS011;64862;54.398;10.126;2023-02-24T12:03:12;17.08;;;2.97;;
16967;SDS011;64862;54.398;10.126;2023-02-24T12:13:22;21.80;;;3.03;;
16967;SDS011;64862;54.398;10.126;2023-02-24T12:23:34;16.98;;;2.40;;
16967;SDS011;64862;54.398;10.126;2023-02-24T12:33:41;10.05;;;1.42;;
16967;SDS011;64862;54.398;10.126;2023-02-24T12:43:53;9.55;;;1.25;;
16967;SDS011;64862;54.398;10.126;2023-02-24T12:54:02;11.13;;;1.55;;
16967;SDS011;64862;54.398;10.126;2023-02-24T13:04:20;15.88;;;1.92;;
16967;SDS011;64862;54.398;10.126;2023-02-24T13:14:31;20.80;;;2.83;;
16967;SDS011;64862;54.398;10.126;2023-02-24T13:24:37;18.42;;;2.30;;
16967;SDS011;64862;54.398;10.126;2023-02-24T13:34:42;11.85;;;1.80;;
16967;SDS011;64862;54.398;10.126;2023-02-24T13:44:48;12.18;;;2.03;;
16967;SDS011;64862;54.398;10.126;2023-02-24T13:54:57;11.80;;;1.37;;
16967;SDS011;64862;54.398;10.126;2023-02-24T14:05:15;7.63;;;0.90;;
16967;SDS011;64862;54.398;10.126;2023-02-24T14:15:23;9.32;;;0.93;;
16967;SDS011;64862;54.398;10.126;2023-02-24T14:25:29;5.22;;;0.85;;
16967;SDS011;64862;54.398;10.126;2023-02-24T14:35:36;4.07;;;0.50;;
16967;SDS011;64862;54.398;10.126;2023-02-24T14:45:47;9.38;;;0.82;;
16967;SDS011;64862;54.398;10.126;2023-02-24T14:55:50;7.03;;;1.00;;
16967;SDS011;64862;54.398;10.126;2023-02-24T15:06:03;9.23;;;1.00;;
16967;SDS011;64862;54.398;10.126;2023-02-24T15:16:09;9.27;;;1.48;;
16967;SDS011;64862;54.398;10.126;2023-02-24T15:26:25;12.98;;;1.42;;
16967;SDS011;64862;54.398;10.126;2023-02-24T15:36:30;11.32;;;2.25;;
16967;SDS011;64862;54.398;10.126;2023-02-24T15:46:35;16.30;;;1.95;;
16967;SDS011;64862;54.398;10.126;2023-02-24T15:56:37;14.15;;;1.70;;
16967;SDS011;64862;54.398;10.126;2023-02-24T16:06:42;12.48;;;2.10;;
16967;SDS011;64862;54.398;10.126;2023-02-24T16:16:53;13.15;;;1.90;;
16967;SDS011;64862;54.398;10.126;2023-02-24T16:26:56;19.45;;;2.60;;
16967;SDS011;64862;54.398;10.126;2023-02-24T16:36:58;25.98;;;3.05;;
16967;SDS011;64862;54.398;10.126;2023-02-24T16:47:02;18.38;;;2.70;;
16967;SDS011;64862;54.398;10.126;2023-02-24T16:57:04;19.20;;;2.85;;
16967;SDS011;64862;54.398;10.126;2023-02-24T17:07:08;24.25;;;3.40;;
16967;SDS011;64862;54.398;10.126;2023-02-24T17:17:11;21.48;;;2.78;;
16967;SDS011;64862;54.398;10.126;2023-02-24T17:27:14;20.58;;;3.03;;
16967;SDS011;64862;54.398;10.126;2023-02-24T17:37:16;20.30;;;2.70;;
16967;SDS011;64862;54.398;10.126;2023-02-24T17:47:21;12.77;;;2.05;;
16967;SDS011;64862;54.398;10.126;2023-02-24T17:57:23;19.13;;;2.00;;
16967;SDS011;64862;54.398;10.126;2023-02-24T18:07:27;11.48;;;1.55;;
16967;SDS011;64862;54.398;10.126;2023-02-24T18:17:29;4.93;;;0.93;;
16967;SDS011;64862;54.398;10.126;2023-02-24T18:27:33;2.55;;;0.40;;
16967;SDS011;64862;54.398;10.126;2023-02-24T18:37:35;2.90;;;0.40;;
16967;SDS011;64862;54.398;10.126;2023-02-24T18:47:38;2.30;;;0.60;;
16967;SDS011;64862;54.398;10.126;2023-02-24T18:57:40;4.95;;;0.70;;
16967;SDS011;64862;54.398;10.126;2023-02-24T19:07:44;2.85;;;0.60;;
16967;SDS011;64862;54.398;10.126;2023-02-24T19:17:46;1.73;;;0.60;;
16967;SDS011;64862;54.398;10.126;2023-02-24T19:27:51;5.75;;;0.70;;
16967;SDS011;64862;54.398;10.126;2023-02-24T19:37:53;3.30;;;0.82;;
16967;SDS011;64862;54.398;10.126;2023-02-24T19:47:56;1.02;;;0.30;;
16967;SDS011;64862;54.398;10.126;2023-02-24T19:57:58;5.53;;;0.57;;
16967;SDS011;64862;54.398;10.126;2023-02-24T20:08:02;4.55;;;0.68;;
16967;SDS011;64862;54.398;10.126;2023-02-24T20:18:04;2.47;;;0.60;;
16967;SDS011;64862;54.398;10.126;2023-02-24T20:28:09;4.10;;;0.60;;
16967;SDS011;64862;54.398;10.126;2023-02-24T20:38:11;1.30;;;0.57;;
16967;SDS011;64862;54.398;10.126;2023-02-24T20:48:14;2.55;;;0.80;;
16967;SDS011;64862;54.398;10.126;2023-02-24T20:58:16;2.42;;;0.80;;
16967;SDS011;64862;54.398;10.126;2023-02-24T21:08:20;1.80;;;0.63;;
16967;SDS011;64862;54.398;10.126;2023-02-24T21:18:22;2.60;;;0.77;;
16967;SDS011;64862;54.398;10.126;2023-02-24T21:28:25;5.05;;;1.10;;
16967;SDS011;64862;54.398;10.126;2023-02-24T21:38:27;5.82;;;1.00;;
16967;SDS011;64862;54.398;10.126;2023-02-24T21:48:32;5.63;;;0.90;;
16967;SDS011;64862;54.398;10.126;2023-02-24T21:58:34;5.95;;;1.00;;
16967;SDS011;64862;54.398;10.126;2023-02-24T22:08:38;9.82;;;1.30;;
16967;SDS011;64862;54.398;10.126;2023-02-24T22:18:44;7.68;;;1.50;;
16967;SDS011;64862;54.398;10.126;2023-02-24T22:28:50;7.35;;;1.23;;
16967;SDS011;64862;54.398;10.126;2023-02-24T22:38:53;9.60;;;1.40;;
16967;SDS011;64862;54.398;10.126;2023-02-24T22:48:57;8.32;;;1.30;;
16967;SDS011;64862;54.398;10.126;2023-02-24T22:58:59;7.43;;;1.20;;
16967;SDS011;64862;54.398;10.126;2023-02-24T23:09:03;5.20;;;0.73;;
16967;SDS011;64862;54.398;10.126;2023-02-24T23:19:07;6.85;;;0.93;;
16967;SDS011;64862;54.398;10.126;2023-02-24T23:29:14;5.65;;;0.85;;
16967;SDS011;64862;54.398;10.126;2023-02-24T23:39:18;4.57;;;0.70;;
16967;SDS011;64862;54.398;10.126;2023-02-24T23:49:24;3.15;;;0.70;;
16967;SDS011;64862;54.398;10.126;2023-02-24T23:59:26;5.15;;;1.20;;
